createdAt,value
2019-02-23T00:04:24.535Z,98454.00
2019-02-23T00:09:27.160Z,98445.00
2019-02-23T00:14:29.908Z,98444.00
2019-02-23T00:19:32.506Z,98455.00
2019-02-23T00:24:35.372Z,98465.00
2019-02-23T00:29:37.932Z,98473.00
2019-02-23T00:34:40.504Z,98476.00
2019-02-23T00:39:43.836Z,98472.00
2019-02-23T00:44:47.137Z,98470.00
2019-02-23T00:49:49.676Z,98531.00
2019-02-23T00:54:52.439Z,98460.00
2019-02-23T00:59:55.719Z,98481.00
2019-02-23T01:04:58.310Z,98479.00
2019-02-23T01:10:02.063Z,98480.00
2019-02-23T01:15:08.344Z,98481.00
2019-02-23T01:20:11.049Z,98479.00
2019-02-23T01:25:14.576Z,98474.00
2019-02-23T01:30:17.258Z,98468.00
2019-02-23T01:35:19.907Z,98464.00
2019-02-23T01:40:24.483Z,98460.00
2019-02-23T01:45:27.976Z,98467.00
2019-02-23T01:50:30.735Z,98473.00
2019-02-23T01:55:41.055Z,98460.00
2019-02-23T02:00:46.539Z,98466.00
2019-02-23T02:06:08.020Z,98469.00
2019-02-23T02:11:29.293Z,98470.00
2019-02-23T02:16:37.754Z,98475.00
2019-02-23T04:33:37.046Z,98500.00
2019-02-23T04:38:42.160Z,98484.00
2019-02-23T04:43:48.793Z,98475.00
2019-02-23T04:48:59.928Z,98481.00
2019-02-23T04:54:26.731Z,98476.00
2019-02-23T06:03:50.870Z,98479.00
2019-02-23T06:08:55.157Z,98468.00
2019-02-23T06:14:01.031Z,98476.00
2019-02-23T06:19:08.146Z,98491.00
2019-02-23T06:24:13.853Z,98476.00
2019-02-23T06:29:16.537Z,98468.00
2019-02-23T06:34:19.240Z,98461.00
2019-02-23T06:45:48.531Z,98466.00
2019-02-23T06:50:55.421Z,98494.00
2019-02-23T06:56:06.580Z,98496.00
2019-02-23T07:01:09.996Z,98502.00
2019-02-23T07:06:13.005Z,98508.00
2019-02-23T07:11:51.796Z,98517.00
2019-02-23T07:17:09.304Z,98520.00
2019-02-23T07:22:18.621Z,98521.00
2019-02-23T07:27:36.436Z,98524.00
2019-02-23T07:32:44.842Z,98521.00
2019-02-23T07:37:49.094Z,98511.00
2019-02-23T07:48:53.119Z,98531.00
2019-02-23T07:53:57.933Z,98540.00
2019-02-23T07:59:10.976Z,98537.00
2019-02-23T08:04:13.959Z,98535.00
2019-02-23T08:09:16.855Z,98526.00
2019-02-23T08:14:20.163Z,98527.00
2019-02-23T08:19:23.491Z,98521.00
2019-02-23T08:24:29.608Z,98534.00
2019-02-23T08:42:00.514Z,98570.00
2019-02-23T08:47:17.681Z,98569.00
2019-02-23T08:59:01.289Z,98596.00
2019-02-23T09:04:07.048Z,98599.00
2019-02-23T09:09:14.030Z,98594.00
2019-02-23T09:14:17.125Z,98597.00
2019-02-23T09:19:21.013Z,98607.00
2019-02-23T09:24:31.114Z,98580.00
2019-02-23T09:29:36.053Z,98578.00
2019-02-23T09:34:44.923Z,98583.00
2019-02-23T09:39:48.692Z,98598.00
2019-02-23T09:44:52.354Z,98599.00
2019-02-23T09:50:08.238Z,98606.00
2019-02-23T09:55:17.818Z,98611.00
2019-02-23T10:00:20.707Z,98619.00
2019-02-23T10:05:23.623Z,98625.00
2019-02-23T10:10:26.325Z,98633.00
2019-02-23T10:21:32.866Z,98617.00
2019-02-23T10:26:37.228Z,98627.00
2019-02-23T10:31:53.855Z,98625.00
2019-02-23T10:36:59.400Z,98611.00
2019-02-23T10:54:28.267Z,98597.00
2019-02-23T10:59:31.479Z,98580.00
2019-02-23T11:04:34.113Z,98574.00
2019-02-23T11:15:42.106Z,98562.00
2019-02-23T11:20:57.726Z,98571.00
2019-02-23T11:26:00.455Z,98568.00
2019-02-23T11:31:04.403Z,98567.00
2019-02-23T11:36:13.604Z,98571.00
2019-02-23T11:41:24.529Z,98572.00
2019-02-23T11:46:27.325Z,98573.00
2019-02-23T11:51:30.838Z,98575.00
2019-02-23T11:56:35.648Z,98570.00
2019-02-23T12:01:39.732Z,98551.00
2019-02-23T12:06:46.007Z,98542.00
2019-02-23T12:12:19.666Z,98539.00
2019-02-23T12:17:22.211Z,98523.00
2019-02-23T12:22:24.846Z,98522.00
2019-02-23T12:27:27.492Z,98511.00
2019-02-23T12:32:30.327Z,98509.00
2019-02-23T12:37:33.050Z,98505.00
2019-02-23T12:42:35.638Z,98513.00
2019-02-23T12:47:38.279Z,98509.00
2019-02-23T12:52:42.759Z,98505.00
2019-02-23T12:57:45.808Z,98496.00
2019-02-23T13:02:48.747Z,98489.00
2019-02-23T13:07:51.390Z,98493.00
2019-02-23T13:13:22.453Z,98487.00
2019-02-23T13:19:08.940Z,98477.00
2019-02-23T13:24:58.263Z,98467.00
2019-02-23T13:30:50.551Z,98469.00
2019-02-23T13:36:43.746Z,98463.00
2019-02-23T13:42:38.644Z,98447.00
2019-02-23T13:48:27.828Z,98444.00
2019-02-23T13:53:59.450Z,98421.00
2019-02-23T13:59:37.739Z,98427.00
2019-02-23T14:05:02.323Z,98426.00
2019-02-23T14:10:55.228Z,98431.00
2019-02-23T14:17:18.904Z,98423.00
2019-02-23T14:23:18.476Z,98423.00
2019-02-23T14:28:57.075Z,98424.00
2019-02-23T14:47:10.923Z,98445.00
2019-02-23T14:52:44.483Z,98431.00
2019-02-23T14:58:24.125Z,98420.00
2019-02-23T15:21:37.725Z,98386.00
2019-02-23T15:27:10.614Z,98386.00
2019-02-23T15:32:45.365Z,98389.00
2019-02-23T15:50:38.786Z,98383.00
2019-02-23T15:55:43.058Z,98394.00
2019-02-23T17:15:48.009Z,98383.00
2019-02-23T17:20:54.505Z,98392.00
2019-02-23T17:26:37.804Z,98409.00
2019-02-23T17:44:14.741Z,98402.00
2019-02-23T17:49:38.053Z,98399.00
2019-02-23T18:00:56.769Z,98405.00
2019-02-23T18:06:09.920Z,98400.00
2019-02-23T18:11:18.819Z,98403.00
2019-02-23T18:16:33.415Z,98392.00
2019-02-23T18:21:36.676Z,98387.00
2019-02-23T18:26:39.412Z,98390.00
2019-02-23T18:31:42.494Z,98391.00
2019-02-23T18:42:49.863Z,98407.00
2019-02-23T18:47:55.288Z,98403.00
2019-02-23T18:52:57.934Z,98398.00
2019-02-23T18:58:12.489Z,98396.00
2019-02-23T19:03:39.693Z,98385.00
2019-02-23T19:14:33.306Z,98396.00
2019-02-23T19:19:42.213Z,98397.00
2019-02-23T19:24:46.612Z,98382.00
2019-02-23T19:29:49.347Z,98382.00
2019-02-23T19:34:52.274Z,98385.00
2019-02-23T19:39:55.574Z,98385.00
2019-02-23T19:50:53.187Z,98394.00
2019-02-23T19:55:57.255Z,98399.00
2019-02-23T20:01:02.260Z,98405.00
2019-02-23T20:06:06.486Z,98406.00
2019-02-23T20:11:09.749Z,98407.00
2019-02-23T20:16:41.455Z,98408.00
2019-02-23T20:21:44.043Z,98402.00
2019-02-23T20:26:55.475Z,98408.00
2019-02-23T20:32:22.924Z,98400.00
2019-02-23T20:43:18.879Z,98403.00
2019-02-23T20:48:21.704Z,98406.00
2019-02-23T20:53:45.273Z,98401.00
2019-02-23T20:58:47.886Z,98410.00
2019-02-23T21:03:52.265Z,98394.00
2019-02-23T21:08:55.030Z,98406.00
2019-02-23T21:13:58.198Z,98392.00
2019-02-23T21:19:05.648Z,98401.00
2019-02-23T21:24:08.378Z,98407.00
2019-02-23T21:29:34.783Z,98357.00
2019-02-23T21:34:37.688Z,98399.00
2019-02-23T21:39:46.216Z,98385.00
2019-02-23T21:44:48.807Z,98384.00
2019-02-23T21:49:51.567Z,98389.00
2019-02-23T21:54:54.859Z,98387.00
2019-02-23T21:59:59.930Z,98386.00
2019-02-23T22:05:11.641Z,98395.00
2019-02-23T22:10:07.602Z,98391.00
2019-02-23T22:15:11.599Z,98399.00
2019-02-23T22:20:17.409Z,98407.00
2019-02-23T22:25:20.305Z,98407.00
2019-02-23T22:30:22.965Z,98410.00
2019-02-23T22:35:31.245Z,98399.00
2019-02-23T22:40:38.777Z,98401.00
2019-02-23T22:45:41.336Z,98388.00
2019-02-23T22:51:14.511Z,98385.00
2019-02-23T22:56:18.785Z,98382.00
2019-02-23T23:01:22.291Z,98387.00
2019-02-23T23:06:27.241Z,98389.00
2019-02-23T23:11:30.387Z,98380.00
2019-02-23T23:16:33.381Z,98388.00
2019-02-23T23:21:36.468Z,98393.00
2019-02-23T23:43:32.940Z,98382.00
2019-02-23T23:48:37.766Z,98379.00
